Time;durP1;ratioP1;P1;durP2;ratioP2;P2;SDS_P1;SDS_P2;PMS_P1;PMS_P2;Temp;Humidity;BMP_temperature;BMP_pressure;BME280_temperature;BME280_humidity;BME280_pressure;Samples;Min_cycle;Max_cycle;Signal;HPM_P1;HPM_P2
2022/05/31 00:02:12;;;;;;;2.85;2.35;;;8.80;99.90;;;;;;5020571;28;20056;-71
2022/05/31 00:04:38;;;;;;;2.92;2.10;;;8.70;99.90;;;;;;5049746;28;20105;-71
2022/05/31 00:07:07;;;;;;;1.95;1.80;;;8.70;99.90;;;;;;5049960;28;20065;-71
2022/05/31 00:09:33;;;;;;;2.22;1.80;;;8.70;99.90;;;;;;5041060;28;20068;-71
2022/05/31 00:11:59;;;;;;;2.38;2.00;;;8.80;99.90;;;;;;5029316;28;20059;-71
2022/05/31 00:14:25;;;;;;;1.95;1.80;;;8.80;99.90;;;;;;5025672;28;20069;-71
2022/05/31 00:16:51;;;;;;;2.22;2.00;;;9.10;99.90;;;;;;5049106;28;20105;-71
2022/05/31 00:19:18;;;;;;;2.15;1.95;;;9.00;99.90;;;;;;5031140;28;20045;-71
2022/05/31 00:21:49;;;;;;;1.80;1.55;;;9.10;99.90;;;;;;5055673;28;20057;-71
2022/05/31 00:24:18;;;;;;;2.05;1.85;;;9.20;99.90;;;;;;5030216;28;20053;-71
2022/05/31 00:26:44;;;;;;;2.33;2.13;;;9.10;99.90;;;;;;5029595;28;20041;-71
2022/05/31 00:29:11;;;;;;;2.30;2.10;;;9.10;99.90;;;;;;5050626;28;20038;-71
2022/05/31 00:31:43;;;;;;;3.70;3.40;;;9.00;99.90;;;;;;5045574;28;20459;-71
2022/05/31 00:34:09;;;;;;;4.00;3.00;;;8.80;99.90;;;;;;5047233;28;20049;-71
2022/05/31 00:36:37;;;;;;;2.58;2.22;;;8.80;99.90;;;;;;5043174;28;20033;-71
2022/05/31 00:39:03;;;;;;;2.85;2.55;;;8.90;99.90;;;;;;5025409;28;20057;-71
2022/05/31 00:41:29;;;;;;;3.20;2.92;;;8.70;99.90;;;;;;5032517;28;20442;-71
2022/05/31 00:44:09;;;;;;;5.20;3.22;;;8.70;99.90;;;;;;5025072;28;20436;-71
2022/05/31 00:46:53;;;;;;;3.45;3.15;;;8.90;99.90;;;;;;5047765;28;20045;-71
2022/05/31 00:49:33;;;;;;;3.30;3.00;;;9.00;99.90;;;;;;5032229;28;20429;-71
2022/05/31 00:52:14;;;;;;;3.80;3.40;;;9.10;99.90;;;;;;5038996;28;20048;-71
2022/05/31 00:54:45;;;;;;;3.75;3.25;;;9.10;99.90;;;;;;5033467;28;20041;-71
2022/05/31 00:57:13;;;;;;;3.55;3.25;;;9.10;99.90;;;;;;5032468;28;20049;-70
2022/05/31 00:59:45;;;;;;;4.00;3.60;;;9.10;99.90;;;;;;5045966;28;20073;-71
2022/05/31 01:02:11;;;;;;;4.60;3.35;;;9.00;99.90;;;;;;5025974;28;20038;-71
2022/05/31 01:04:59;;;;;;;6.38;3.28;;;9.00;99.90;;;;;;5032972;28;20057;-70
2022/05/31 01:07:25;;;;;;;3.60;3.30;;;9.10;99.90;;;;;;5026015;28;20052;-71
2022/05/31 01:09:52;;;;;;;3.78;3.47;;;9.30;99.90;;;;;;5039528;28;20068;-71
2022/05/31 01:12:19;;;;;;;3.65;3.35;;;9.10;99.90;;;;;;5060890;28;20492;-71
2022/05/31 01:14:44;;;;;;;4.18;3.35;;;9.10;99.90;;;;;;5038084;28;20121;-71
2022/05/31 01:17:15;;;;;;;3.75;3.45;;;9.20;99.90;;;;;;5036033;28;20077;-71
2022/05/31 01:19:56;;;;;;;3.97;3.58;;;9.20;99.90;;;;;;5031063;28;20090;-71
2022/05/31 01:22:45;;;;;;;3.70;3.17;;;9.10;99.90;;;;;;5040280;28;20114;-71
2022/05/31 01:25:27;;;;;;;4.75;3.17;;;9.30;99.90;;;;;;5043275;28;20080;-71
2022/05/31 01:28:32;;;;;;;3.90;3.50;;;9.30;99.90;;;;;;5023700;28;20083;-71
2022/05/31 01:31:10;;;;;;;5.18;3.83;;;9.40;99.90;;;;;;5007800;28;20088;-71
2022/05/31 01:34:08;;;;;;;4.10;3.70;;;9.40;99.90;;;;;;5030957;28;20057;-71
2022/05/31 01:36:46;;;;;;;4.78;4.28;;;9.50;99.90;;;;;;5034155;28;20049;-71
2022/05/31 01:39:34;;;;;;;5.30;4.00;;;9.50;99.90;;;;;;5029169;28;20054;-71
2022/05/31 01:42:06;;;;;;;4.53;4.10;;;9.40;99.90;;;;;;5055928;28;20037;-71
2022/05/31 01:44:35;;;;;;;4.55;4.10;;;9.30;99.90;;;;;;5028177;28;20081;-71
2022/05/31 01:47:03;;;;;;;4.53;3.80;;;9.40;99.90;;;;;;5046242;28;20075;-71
2022/05/31 01:49:34;;;;;;;4.13;3.63;;;9.30;99.90;;;;;;5033712;28;20084;-71
2022/05/31 01:52:01;;;;;;;4.22;3.83;;;9.30;99.90;;;;;;5029728;28;20049;-71
2022/05/31 01:54:27;;;;;;;4.25;3.67;;;9.30;99.90;;;;;;5031806;28;20049;-71
2022/05/31 01:56:58;;;;;;;4.25;3.55;;;9.40;99.90;;;;;;5026299;28;20053;-71
2022/05/31 01:59:26;;;;;;;4.35;3.95;;;9.50;99.90;;;;;;5046666;28;20087;-71
2022/05/31 02:01:54;;;;;;;4.93;3.70;;;9.40;99.90;;;;;;5059145;28;20111;-71
2022/05/31 02:04:20;;;;;;;5.28;3.80;;;9.40;99.90;;;;;;5041117;28;20058;-71
2022/05/31 02:06:46;;;;;;;4.93;4.38;;;9.40;99.90;;;;;;5047195;28;20103;-71
2022/05/31 02:09:14;;;;;;;5.22;4.72;;;9.40;99.90;;;;;;5027124;28;20045;-71
2022/05/31 02:11:41;;;;;;;6.70;4.50;;;9.50;99.90;;;;;;5059615;28;20109;-71
2022/05/31 02:14:07;;;;;;;6.10;4.82;;;9.60;99.90;;;;;;5050141;28;20064;-71
2022/05/31 02:16:33;;;;;;;5.78;4.30;;;9.40;99.90;;;;;;5061397;28;20551;-71
2022/05/31 02:21:43;;;;;;;5.65;4.78;;;9.40;99.90;;;;;;5041963;28;20088;-71
2022/05/31 02:24:11;;;;;;;10.93;5.63;;;9.50;99.90;;;;;;5034329;28;20045;-71
2022/05/31 02:26:41;;;;;;;4.55;4.15;;;9.40;99.90;;;;;;5049488;28;20425;-71
2022/05/31 02:29:12;;;;;;;5.65;4.50;;;9.60;99.90;;;;;;5039642;28;20052;-71
2022/05/31 02:31:39;;;;;;;4.53;3.92;;;9.60;99.90;;;;;;5029100;28;20045;-71
2022/05/31 02:34:08;;;;;;;5.25;4.75;;;9.40;99.90;;;;;;5045249;28;20041;-71
2022/05/31 02:36:34;;;;;;;4.95;4.55;;;9.40;99.90;;;;;;5046774;28;20041;-71
2022/05/31 02:39:00;;;;;;;4.93;4.10;;;9.30;99.90;;;;;;5042276;28;20056;-71
2022/05/31 02:41:27;;;;;;;5.25;4.38;;;9.40;99.90;;;;;;5045710;28;20049;-71
2022/05/31 02:43:52;;;;;;;4.85;4.35;;;9.30;99.90;;;;;;5046853;28;20053;-71
2022/05/31 02:46:18;;;;;;;5.15;4.57;;;9.30;99.90;;;;;;5026435;28;20060;-71
2022/05/31 02:48:44;;;;;;;5.18;4.55;;;9.40;99.90;;;;;;5026980;28;20492;-71
2022/05/31 02:51:09;;;;;;;5.30;4.13;;;9.30;99.90;;;;;;5028895;28;20068;-71
2022/05/31 02:53:37;;;;;;;5.07;4.32;;;9.40;99.90;;;;;;5029018;28;20049;-71
2022/05/31 02:56:03;;;;;;;5.43;4.00;;;9.40;99.90;;;;;;5026812;28;20116;-71
2022/05/31 02:58:29;;;;;;;5.05;4.32;;;9.30;99.90;;;;;;5056316;28;20041;-70
2022/05/31 03:00:54;;;;;;;6.45;5.00;;;9.30;99.90;;;;;;5011929;28;20057;-71
2022/05/31 03:03:20;;;;;;;7.53;5.20;;;9.30;99.90;;;;;;5028193;28;20140;-71
2022/05/31 03:05:46;;;;;;;5.55;4.70;;;9.20;99.90;;;;;;5027991;28;20063;-71
2022/05/31 03:08:12;;;;;;;5.53;5.00;;;9.20;99.90;;;;;;5022346;28;20042;-71
2022/05/31 03:10:46;;;;;;;5.85;5.25;;;9.10;99.90;;;;;;5020108;28;20045;-71
2022/05/31 03:13:17;;;;;;;6.85;5.55;;;9.30;99.90;;;;;;5024284;28;20045;-70
2022/05/31 03:15:44;;;;;;;8.15;5.90;;;9.10;99.90;;;;;;5029227;28;20063;-70
2022/05/31 03:18:19;;;;;;;5.80;5.20;;;9.10;99.90;;;;;;5028753;28;20101;-71
2022/05/31 03:20:48;;;;;;;6.78;5.30;;;9.20;99.90;;;;;;5042417;28;20101;-71
2022/05/31 03:23:20;;;;;;;6.35;5.40;;;9.30;99.90;;;;;;5064896;28;20084;-70
2022/05/31 03:25:48;;;;;;;6.82;5.53;;;9.20;99.90;;;;;;5055642;28;20053;-71
2022/05/31 03:28:16;;;;;;;7.18;5.50;;;9.30;99.90;;;;;;5029481;28;20057;-70
2022/05/31 03:30:42;;;;;;;5.82;5.25;;;9.50;99.90;;;;;;5024002;28;20045;-70
2022/05/31 03:33:09;;;;;;;9.65;4.55;;;9.30;99.90;;;;;;5032495;28;20048;-70
2022/05/31 03:35:36;;;;;;;7.10;5.18;;;9.30;99.90;;;;;;5030241;28;20057;-71
2022/05/31 03:38:02;;;;;;;6.13;5.32;;;9.30;99.90;;;;;;5059796;28;20421;-70
2022/05/31 03:43:13;;;;;;;4.68;4.28;;;9.20;99.90;;;;;;5022678;28;20560;-70
2022/05/31 03:45:41;;;;;;;5.07;4.30;;;9.40;99.90;;;;;;5022734;28;20049;-71
2022/05/31 03:48:08;;;;;;;4.93;4.15;;;9.20;99.90;;;;;;5028084;28;20133;-70
2022/05/31 03:50:34;;;;;;;5.65;4.78;;;9.40;99.90;;;;;;5029234;28;20077;-70
2022/05/31 03:53:00;;;;;;;5.50;4.70;;;9.40;99.90;;;;;;5044604;28;20145;-70
2022/05/31 03:55:25;;;;;;;7.40;4.80;;;9.30;99.90;;;;;;5028725;28;20044;-70
2022/05/31 03:57:52;;;;;;;5.65;4.50;;;9.30;99.90;;;;;;5009068;28;20046;-71
2022/05/31 04:00:19;;;;;;;6.15;4.80;;;9.40;99.90;;;;;;5044564;28;20045;-71
2022/05/31 04:02:45;;;;;;;5.93;5.30;;;9.40;99.90;;;;;;5047579;28;20041;-70
2022/05/31 04:05:12;;;;;;;5.22;4.72;;;9.40;99.90;;;;;;5040754;28;20064;-70
2022/05/31 04:07:38;;;;;;;5.25;4.78;;;9.40;99.90;;;;;;5060770;28;20072;-71
2022/05/31 04:10:04;;;;;;;4.93;4.43;;;9.50;99.90;;;;;;5024455;28;20041;-71
2022/05/31 04:12:34;;;;;;;5.07;4.57;;;9.50;99.90;;;;;;5027405;28;20105;-71
2022/05/31 04:14:59;;;;;;;5.82;4.95;;;9.50;99.90;;;;;;5044098;28;20037;-71
2022/05/31 04:17:25;;;;;;;5.80;4.35;;;9.40;99.90;;;;;;5030690;28;20056;-71
2022/05/31 04:19:51;;;;;;;4.80;4.28;;;9.50;99.90;;;;;;5024645;28;20409;-71
2022/05/31 04:22:16;;;;;;;5.45;4.90;;;9.60;99.90;;;;;;5031415;28;20088;-71
2022/05/31 04:24:42;;;;;;;6.13;4.95;;;9.60;99.90;;;;;;5047832;28;20100;-70
2022/05/31 04:27:13;;;;;;;5.50;4.50;;;9.60;99.90;;;;;;5032055;28;20068;-71
2022/05/31 04:29:39;;;;;;;4.82;4.40;;;9.70;99.90;;;;;;5048236;28;20041;-71
2022/05/31 04:32:05;;;;;;;6.43;4.82;;;9.60;99.90;;;;;;5033539;28;20048;-71
2022/05/31 04:34:31;;;;;;;5.90;4.97;;;9.60;99.90;;;;;;5000170;28;20049;-70
2022/05/31 04:36:57;;;;;;;7.15;5.25;;;9.70;99.90;;;;;;5024264;28;20053;-70
2022/05/31 04:39:23;;;;;;;7.43;5.55;;;9.70;99.90;;;;;;5017568;28;20201;-70
2022/05/31 04:41:49;;;;;;;7.30;5.78;;;9.80;99.90;;;;;;5014935;28;20089;-70
2022/05/31 04:44:15;;;;;;;6.05;5.35;;;9.80;99.90;;;;;;5021246;28;20061;-71
2022/05/31 04:46:42;;;;;;;6.43;5.57;;;9.90;99.90;;;;;;5019966;28;20065;-71
2022/05/31 04:49:08;;;;;;;8.15;5.18;;;9.80;99.90;;;;;;5008819;28;20080;-71
2022/05/31 04:51:34;;;;;;;6.20;5.60;;;10.10;99.90;;;;;;5023037;28;20038;-70
2022/05/31 04:54:01;;;;;;;7.22;6.20;;;9.90;99.90;;;;;;5021374;28;20076;-72
2022/05/31 04:56:27;;;;;;;7.85;7.05;;;10.00;99.90;;;;;;5042390;28;20053;-72
2022/05/31 04:58:53;;;;;;;7.70;6.68;;;10.00;99.90;;;;;;5036682;28;20151;-72
2022/05/31 05:01:20;;;;;;;9.85;7.55;;;10.10;99.90;;;;;;5006370;28;20095;-72
2022/05/31 05:03:46;;;;;;;8.77;7.22;;;10.10;99.90;;;;;;5002055;28;20048;-71
2022/05/31 05:06:15;;;;;;;10.02;7.53;;;10.10;99.90;;;;;;5012245;28;20128;-73
2022/05/31 05:08:42;;;;;;;7.80;7.00;;;10.20;99.90;;;;;;5022225;28;20087;-72
2022/05/31 05:11:11;;;;;;;8.93;7.95;;;10.30;99.90;;;;;;5041652;28;20694;-73
2022/05/31 05:13:38;;;;;;;8.35;7.47;;;10.20;99.90;;;;;;5018515;28;20533;-73
2022/05/31 05:16:06;;;;;;;8.48;6.88;;;10.30;99.90;;;;;;5008719;28;20052;-73
2022/05/31 05:18:32;;;;;;;9.10;7.50;;;10.30;99.90;;;;;;5023493;28;20033;-73
2022/05/31 05:21:00;;;;;;;10.05;6.93;;;10.30;99.90;;;;;;5012981;28;20060;-74
2022/05/31 05:23:26;;;;;;;8.40;7.30;;;10.40;99.90;;;;;;5000592;28;20056;-71
2022/05/31 05:25:53;;;;;;;8.90;7.68;;;10.40;99.90;;;;;;5019525;28;20057;-71
2022/05/31 05:31:05;;;;;;;9.52;7.70;;;10.40;99.90;;;;;;5004250;28;20084;-72
2022/05/31 05:33:31;;;;;;;8.07;6.75;;;10.50;99.90;;;;;;5001535;28;20041;-72
2022/05/31 05:35:57;;;;;;;9.75;7.13;;;10.50;99.90;;;;;;4982937;28;20073;-72
2022/05/31 05:38:23;;;;;;;8.38;7.03;;;10.60;99.90;;;;;;5000820;28;20053;-73
2022/05/31 05:40:49;;;;;;;8.77;7.10;;;10.70;99.90;;;;;;5002936;28;20050;-73
2022/05/31 05:43:16;;;;;;;8.32;6.90;;;10.60;99.90;;;;;;5004851;28;20053;-73
2022/05/31 05:45:42;;;;;;;8.05;7.25;;;10.70;99.90;;;;;;5001092;28;20057;-74
2022/05/31 05:48:07;;;;;;;10.55;7.63;;;10.70;99.90;;;;;;5005293;28;20045;-75
2022/05/31 05:50:35;;;;;;;10.27;7.55;;;10.80;99.90;;;;;;5006287;28;20081;-74
2022/05/31 05:53:04;;;;;;;8.10;7.28;;;10.70;99.90;;;;;;5015097;28;20050;-75
2022/05/31 05:55:30;;;;;;;7.82;6.72;;;10.70;99.90;;;;;;4987683;28;20464;-75
2022/05/31 05:57:56;;;;;;;9.30;7.30;;;10.80;99.90;;;;;;5007865;28;20069;-75
2022/05/31 06:00:22;;;;;;;8.23;7.43;;;10.80;99.90;;;;;;5000003;28;20053;-75
2022/05/31 06:02:57;;;;;;;10.32;7.57;;;10.90;99.90;;;;;;5009810;28;20041;-75
2022/05/31 06:05:28;;;;;;;12.38;8.20;;;11.00;99.90;;;;;;5010533;28;20509;-74
2022/05/31 06:08:09;;;;;;;9.02;7.55;;;11.00;99.90;;;;;;5006794;28;20049;-74
2022/05/31 06:10:45;;;;;;;7.25;6.55;;;11.10;99.90;;;;;;4999586;28;20092;-76
2022/05/31 06:13:19;;;;;;;7.85;7.05;;;11.00;99.90;;;;;;5005810;28;20077;-76
2022/05/31 06:15:50;;;;;;;9.05;8.15;;;11.10;99.90;;;;;;5000080;28;20060;-75
2022/05/31 06:18:21;;;;;;;7.95;7.15;;;11.40;99.90;;;;;;5003220;28;20421;-75
2022/05/31 06:20:52;;;;;;;8.43;7.43;;;11.40;99.90;;;;;;4999797;28;20045;-74
2022/05/31 06:23:17;;;;;;;7.82;7.13;;;11.30;99.90;;;;;;5000166;28;20054;-75
2022/05/31 06:25:43;;;;;;;9.90;7.75;;;11.30;99.90;;;;;;5000547;28;20064;-75
2022/05/31 06:28:09;;;;;;;9.13;7.55;;;11.40;99.90;;;;;;4999479;28;20056;-75
2022/05/31 06:30:35;;;;;;;10.15;7.78;;;11.50;99.90;;;;;;4998466;28;20087;-74
2022/05/31 06:33:00;;;;;;;8.52;6.35;;;11.50;99.90;;;;;;5022902;28;20072;-75
2022/05/31 06:35:26;;;;;;;8.80;7.57;;;11.60;99.90;;;;;;5007993;28;20083;-73
2022/05/31 06:37:52;;;;;;;7.85;6.97;;;11.60;99.90;;;;;;5007176;28;20062;-73
2022/05/31 06:40:18;;;;;;;7.88;6.88;;;11.60;99.90;;;;;;4996423;28;20053;-72
2022/05/31 06:42:44;;;;;;;7.53;6.70;;;11.70;99.90;;;;;;5007107;28;20252;-72
2022/05/31 06:45:09;;;;;;;7.47;6.10;;;11.80;99.90;;;;;;4993299;28;20151;-72
2022/05/31 06:47:37;;;;;;;8.48;6.78;;;11.90;99.90;;;;;;5009246;28;20046;-74
2022/05/31 06:50:03;;;;;;;8.40;6.60;;;11.90;99.90;;;;;;4993564;28;20045;-74
2022/05/31 06:57:57;;;;;;;6.57;5.70;;;12.20;99.90;;;;;;5007111;28;20053;-75
2022/05/31 07:00:23;;;;;;;6.90;6.20;;;12.20;99.90;;;;;;5011789;28;20065;-75
2022/05/31 07:02:50;;;;;;;8.55;6.55;;;12.20;99.90;;;;;;5008238;28;20065;-76
2022/05/31 07:05:18;;;;;;;7.05;5.85;;;12.20;99.90;;;;;;4992909;28;20413;-75
2022/05/31 07:07:43;;;;;;;10.82;7.07;;;12.30;99.90;;;;;;5008235;28;20057;-76
2022/05/31 07:10:10;;;;;;;7.97;6.35;;;12.30;99.90;;;;;;4974622;28;20053;-76
2022/05/31 07:12:37;;;;;;;6.75;6.07;;;12.40;99.90;;;;;;5009793;28;20176;-76
2022/05/31 07:15:04;;;;;;;8.35;6.65;;;12.40;99.90;;;;;;4993477;28;20083;-76
2022/05/31 07:17:30;;;;;;;7.90;5.97;;;12.30;99.90;;;;;;5012963;28;20061;-77
2022/05/31 07:19:56;;;;;;;7.20;5.75;;;12.30;99.90;;;;;;4990639;28;20045;-78
2022/05/31 07:22:22;;;;;;;8.82;5.97;;;12.40;99.90;;;;;;5011861;28;20061;-76
2022/05/31 07:24:48;;;;;;;7.25;6.05;;;12.50;99.90;;;;;;4957711;28;20148;-76
2022/05/31 07:27:14;;;;;;;7.25;6.55;;;12.50;99.90;;;;;;4997364;28;20046;-77
2022/05/31 07:29:41;;;;;;;6.47;5.55;;;12.50;99.90;;;;;;4975892;28;20246;-76
2022/05/31 07:32:07;;;;;;;6.95;6.00;;;12.50;99.90;;;;;;5031300;28;20053;-77
2022/05/31 07:34:33;;;;;;;7.20;5.28;;;12.50;99.90;;;;;;4990034;28;20488;-77
2022/05/31 07:37:00;;;;;;;8.77;5.57;;;12.60;99.90;;;;;;5006898;28;20042;-77
2022/05/31 07:39:26;;;;;;;7.30;5.65;;;12.60;99.90;;;;;;4996711;28;20148;-77
2022/05/31 07:41:54;;;;;;;9.40;5.72;;;12.70;99.90;;;;;;5004535;28;21218;-77
2022/05/31 07:44:21;;;;;;;9.45;5.43;;;12.90;99.90;;;;;;4982253;28;20050;-76
2022/05/31 07:46:47;;;;;;;7.63;5.50;;;12.90;99.90;;;;;;5006389;28;20069;-76
2022/05/31 07:49:13;;;;;;;6.65;4.88;;;12.90;99.90;;;;;;5000010;28;20337;-77
2022/05/31 07:51:40;;;;;;;7.75;5.30;;;12.90;99.90;;;;;;4988204;28;20045;-76
2022/05/31 07:54:06;;;;;;;12.30;6.00;;;12.90;99.90;;;;;;4999018;28;20042;-76
2022/05/31 07:56:32;;;;;;;8.02;6.13;;;13.00;99.90;;;;;;5011917;28;20064;-76
2022/05/31 07:58:58;;;;;;;6.60;5.00;;;13.00;99.90;;;;;;5019206;28;20251;-76
2022/05/31 08:01:25;;;;;;;9.77;5.40;;;13.10;99.90;;;;;;5012352;28;20698;-77
2022/05/31 08:03:54;;;;;;;8.13;5.35;;;13.20;99.90;;;;;;5025681;28;20128;-76
2022/05/31 08:06:23;;;;;;;5.28;4.65;;;13.20;99.90;;;;;;4984011;28;20126;-77
2022/05/31 08:08:49;;;;;;;6.80;4.70;;;13.30;99.90;;;;;;5001676;28;20049;-76
2022/05/31 08:11:27;;;;;;;7.05;4.63;;;13.40;99.90;;;;;;5021991;28;20576;-76
2022/05/31 08:13:53;;;;;;;7.82;4.72;;;13.40;99.90;;;;;;5025259;28;20051;-76
2022/05/31 08:16:24;;;;;;;6.85;4.20;;;13.50;99.90;;;;;;4991637;28;20080;-77
2022/05/31 08:18:50;;;;;;;5.40;4.28;;;13.50;99.90;;;;;;5001452;28;20103;-76
2022/05/31 08:21:27;;;;;;;4.28;3.88;;;13.70;99.90;;;;;;5005228;28;20092;-76
2022/05/31 08:23:54;;;;;;;5.43;4.32;;;13.70;99.90;;;;;;5017854;28;20068;-76
2022/05/31 08:26:20;;;;;;;7.30;4.20;;;13.80;99.90;;;;;;5010029;28;20127;-71
2022/05/31 08:28:45;;;;;;;4.25;3.83;;;13.90;99.90;;;;;;5014321;28;20045;-71
2022/05/31 08:31:14;;;;;;;4.25;3.78;;;13.90;99.90;;;;;;5012526;28;20492;-72
2022/05/31 08:33:40;;;;;;;6.53;4.43;;;14.00;99.90;;;;;;5020359;28;20049;-72
2022/05/31 08:36:08;;;;;;;4.47;3.50;;;14.00;99.90;;;;;;4999948;28;20529;-72
2022/05/31 08:38:34;;;;;;;7.75;4.20;;;14.10;99.90;;;;;;5012421;28;20058;-72
2022/05/31 08:41:18;;;;;;;6.20;3.95;;;14.10;99.90;;;;;;4999932;28;20061;-72
2022/05/31 08:43:47;;;;;;;5.07;3.60;;;14.30;99.90;;;;;;5018354;28;20126;-72
2022/05/31 08:46:18;;;;;;;5.50;3.25;;;14.30;99.90;;;;;;5020901;28;20060;-72
2022/05/31 08:48:57;;;;;;;4.68;3.33;;;14.40;99.90;;;;;;5019869;28;20400;-72
2022/05/31 08:51:53;;;;;;;6.85;3.33;;;14.40;99.90;;;;;;5006571;28;20127;-72
2022/05/31 08:57:19;;;;;;;6.03;2.60;;;14.70;99.90;;;;;;5034625;28;20048;-73
2022/05/31 09:00:04;;;;;;;3.72;2.97;;;14.70;99.90;;;;;;5009209;28;20046;-72
2022/05/31 09:02:37;;;;;;;3.20;2.90;;;14.70;99.90;;;;;;4987182;28;20072;-72
2022/05/31 09:05:08;;;;;;;5.20;3.65;;;14.90;99.90;;;;;;4975307;28;20058;-72
2022/05/31 09:07:48;;;;;;;3.83;3.30;;;15.10;99.90;;;;;;5020211;28;20107;-72
2022/05/31 09:10:23;;;;;;;3.67;3.00;;;15.20;99.90;;;;;;4994312;28;20049;-72
2022/05/31 09:13:13;;;;;;;4.25;2.97;;;15.50;99.90;;;;;;5022461;28;20454;-72
2022/05/31 09:16:22;;;;;;;5.15;3.05;;;15.50;99.90;;;;;;5002161;28;20072;-72
2022/05/31 09:18:57;;;;;;;5.05;3.80;;;15.60;99.90;;;;;;4990578;28;20454;-72
2022/05/31 09:21:34;;;;;;;4.40;3.53;;;15.70;99.90;;;;;;5007762;28;20057;-72
2022/05/31 09:24:00;;;;;;;6.45;3.70;;;15.70;99.90;;;;;;5004831;28;20068;-72
2022/05/31 09:26:46;;;;;;;6.90;5.22;;;15.80;99.90;;;;;;5001652;28;20056;-70
2022/05/31 09:29:21;;;;;;;10.95;5.25;;;15.90;99.90;;;;;;5006726;28;20062;-71
2022/05/31 09:32:12;;;;;;;7.57;5.82;;;16.00;99.90;;;;;;5026973;28;20117;-72
2022/05/31 09:35:17;;;;;;;8.82;6.22;;;16.10;99.90;;;;;;5022887;28;20061;-73
2022/05/31 09:37:54;;;;;;;8.27;5.13;;;16.20;99.90;;;;;;4989337;28;20113;-72
2022/05/31 09:40:47;;;;;;;6.75;5.20;;;16.30;99.90;;;;;;4990950;28;20058;-73
2022/05/31 09:43:22;;;;;;;6.78;4.57;;;16.30;99.90;;;;;;5006556;28;20057;-72
2022/05/31 09:46:08;;;;;;;6.13;3.95;;;16.20;99.90;;;;;;4992894;28;20053;-72
2022/05/31 09:48:44;;;;;;;7.05;3.92;;;16.10;99.90;;;;;;5010441;28;20038;-72
2022/05/31 09:51:32;;;;;;;7.32;4.00;;;15.90;99.90;;;;;;5000136;28;20052;-72
2022/05/31 09:59:30;;;;;;;4.82;3.78;;;15.70;99.90;;;;;;5017913;28;20056;-73
2022/05/31 10:02:12;;;;;;;4.93;3.50;;;15.70;99.90;;;;;;5003477;28;20064;-73
2022/05/31 10:04:38;;;;;;;4.45;3.40;;;15.70;99.90;;;;;;5031729;28;20056;-72
2022/05/31 10:07:06;;;;;;;6.68;4.38;;;15.70;99.90;;;;;;5003205;28;20148;-72
2022/05/31 10:09:41;;;;;;;5.45;3.55;;;15.80;99.90;;;;;;5016324;28;20042;-72
2022/05/31 10:12:15;;;;;;;5.18;3.90;;;15.70;99.90;;;;;;4987741;28;20160;-72
2022/05/31 10:14:49;;;;;;;5.88;4.13;;;15.70;99.90;;;;;;5017316;28;20113;-72
2022/05/31 10:17:42;;;;;;;7.57;4.20;;;15.70;99.90;;;;;;5005540;28;20127;-73
2022/05/31 10:20:25;;;;;;;4.00;3.53;;;15.70;99.90;;;;;;5013532;28;20481;-72
2022/05/31 10:23:03;;;;;;;5.90;3.65;;;15.70;99.90;;;;;;4975684;28;20077;-72
2022/05/31 10:25:39;;;;;;;4.22;3.50;;;15.60;99.90;;;;;;4988483;28;20041;-72
2022/05/31 10:28:20;;;;;;;5.57;3.42;;;15.80;99.90;;;;;;5029339;28;20063;-72
2022/05/31 10:30:52;;;;;;;4.88;2.90;;;15.90;99.90;;;;;;5005449;28;20053;-71
2022/05/31 10:33:25;;;;;;;6.82;3.10;;;16.00;99.90;;;;;;5010745;28;20128;-72
2022/05/31 10:36:17;;;;;;;5.07;3.65;;;16.10;99.90;;;;;;4984570;28;20049;-71
2022/05/31 10:38:45;;;;;;;4.90;3.17;;;16.40;99.90;;;;;;5007035;28;20105;-72
2022/05/31 10:41:30;;;;;;;5.85;3.65;;;16.50;99.90;;;;;;5008282;28;20042;-72
2022/05/31 10:44:09;;;;;;;9.80;4.63;;;16.70;99.90;;;;;;5000724;28;20041;-72
2022/05/31 10:46:38;;;;;;;5.78;3.85;;;16.80;99.90;;;;;;4988565;28;20057;-72
2022/05/31 10:49:20;;;;;;;7.22;4.18;;;17.00;99.90;;;;;;4996020;28;20048;-71
2022/05/31 10:52:04;;;;;;;5.95;3.50;;;17.10;99.90;;;;;;4995071;28;20129;-71
2022/05/31 10:54:55;;;;;;;4.97;4.43;;;17.40;99.90;;;;;;5000923;28;20513;-71
2022/05/31 10:57:32;;;;;;;4.35;3.28;;;17.40;99.90;;;;;;5002910;28;20094;-74
2022/05/31 11:00:08;;;;;;;7.32;3.85;;;17.50;99.90;;;;;;5016002;28;20046;-73
2022/05/31 11:02:49;;;;;;;5.45;3.90;;;17.50;99.90;;;;;;5004463;28;20107;-73
2022/05/31 11:05:19;;;;;;;4.93;3.75;;;17.60;99.90;;;;;;4997674;28;20726;-73
2022/05/31 11:14:14;;;;;;;7.00;4.20;;;17.70;99.90;;;;;;4988818;28;20334;-73
2022/05/31 11:16:57;;;;;;;5.00;3.67;;;17.80;99.90;;;;;;4978612;28;20124;-73
2022/05/31 11:19:33;;;;;;;4.50;3.92;;;17.80;99.90;;;;;;4983201;28;20069;-73
2022/05/31 11:22:07;;;;;;;4.78;3.90;;;17.90;99.90;;;;;;5002551;28;20053;-73
2022/05/31 11:24:37;;;;;;;5.90;3.63;;;17.90;99.90;;;;;;5020925;28;20049;-71
2022/05/31 11:27:23;;;;;;;5.95;3.90;;;17.90;99.90;;;;;;5024012;28;20068;-71
2022/05/31 11:30:14;;;;;;;4.82;3.78;;;17.90;99.90;;;;;;5017585;28;20060;-71
2022/05/31 11:32:53;;;;;;;6.45;3.75;;;17.90;99.90;;;;;;5040479;28;20108;-71
2022/05/31 11:35:46;;;;;;;6.63;4.40;;;17.80;99.90;;;;;;5015923;28;20064;-71
2022/05/31 11:38:38;;;;;;;4.28;3.80;;;17.70;99.90;;;;;;4991651;28;20138;-72
2022/05/31 11:41:16;;;;;;;8.60;4.28;;;17.70;99.90;;;;;;4991585;28;20049;-72
2022/05/31 11:44:30;;;;;;;6.75;4.38;;;17.50;99.90;;;;;;5017417;28;20091;-71
2022/05/31 11:47:10;;;;;;;4.97;3.72;;;17.60;99.90;;;;;;4998461;28;20073;-71
2022/05/31 11:49:51;;;;;;;4.88;4.05;;;17.60;99.90;;;;;;5001736;28;20042;-71
2022/05/31 11:52:46;;;;;;;5.85;4.07;;;17.50;99.90;;;;;;5008848;28;20049;-72
2022/05/31 11:55:51;;;;;;;5.68;3.90;;;17.50;99.90;;;;;;5019724;28;20060;-71
2022/05/31 11:58:44;;;;;;;5.90;3.88;;;17.40;99.90;;;;;;4993419;28;20115;-72
2022/05/31 12:01:43;;;;;;;6.78;4.10;;;17.50;99.90;;;;;;5018229;28;20185;-72
2022/05/31 12:04:50;;;;;;;5.47;4.07;;;17.60;99.90;;;;;;5017316;28;20045;-71
2022/05/31 12:07:23;;;;;;;4.80;3.80;;;17.70;99.90;;;;;;5005438;28;20128;-71
2022/05/31 12:09:51;;;;;;;4.95;3.47;;;17.80;99.90;;;;;;5016415;28;20052;-71
2022/05/31 12:12:30;;;;;;;6.70;3.88;;;17.80;99.90;;;;;;4995731;28;20092;-71
2022/05/31 12:15:02;;;;;;;5.43;3.87;;;18.00;99.90;;;;;;5021474;28;20054;-71
2022/05/31 12:17:53;;;;;;;6.00;4.35;;;18.10;99.60;;;;;;5004065;28;20393;-71
2022/05/31 12:20:22;;;;;;;4.95;4.28;;;18.10;98.70;;;;;;4990118;28;20056;-71
2022/05/31 12:23:05;;;;;;;5.18;3.58;;;18.20;99.90;;;;;;5007039;28;20060;-71
2022/05/31 12:25:36;;;;;;;7.32;4.50;;;18.20;98.80;;;;;;4997660;28;20561;-71
2022/05/31 12:28:28;;;;;;;6.85;4.15;;;18.10;99.50;;;;;;5003806;28;20140;-71
2022/05/31 12:31:09;;;;;;;7.72;4.18;;;18.10;97.70;;;;;;4963069;28;20165;-71
2022/05/31 12:33:44;;;;;;;5.32;3.67;;;17.80;98.20;;;;;;4970263;28;20058;-71
2022/05/31 12:36:14;;;;;;;6.85;4.20;;;17.90;98.10;;;;;;4953567;28;20051;-71
2022/05/31 12:38:54;;;;;;;5.18;4.00;;;17.60;98.00;;;;;;4966994;28;20106;-72
2022/05/31 12:41:37;;;;;;;5.80;4.10;;;17.60;98.90;;;;;;4973679;28;20066;-72
2022/05/31 12:44:15;;;;;;;5.22;3.92;;;17.50;99.00;;;;;;4960180;28;20048;-71
2022/05/31 12:46:49;;;;;;;5.75;3.83;;;17.50;99.00;;;;;;4970175;28;20153;-72
2022/05/31 12:49:19;;;;;;;7.78;4.40;;;17.50;99.60;;;;;;4982490;28;20094;-72
2022/05/31 12:54:48;;;;;;;7.40;4.70;;;17.40;98.90;;;;;;4970846;28;20567;-70
2022/05/31 13:00:32;;;;;;;8.75;4.70;;;17.30;94.20;;;;;;4991612;28;20051;-71
2022/05/31 13:03:00;;;;;;;6.80;4.55;;;17.40;98.50;;;;;;4981897;28;20058;-69
2022/05/31 13:05:49;;;;;;;8.18;4.95;;;17.50;97.10;;;;;;4991734;28;20090;-72
2022/05/31 13:08:15;;;;;;;;;;;17.60;97.30;;;;;;5015076;28;20592;-71
2022/05/31 13:19:35;;;;;;;7.07;4.10;;;17.90;97.70;;;;;;5012667;28;20076;-71
2022/05/31 13:22:03;;;;;;;5.53;4.22;;;18.00;97.10;;;;;;5007257;28;20052;-71
2022/05/31 13:24:30;;;;;;;6.00;4.40;;;18.00;96.60;;;;;;5018395;28;20045;-71
2022/05/31 13:27:00;;;;;;;6.72;4.53;;;18.10;95.90;;;;;;5026185;28;20054;-72
2022/05/31 13:29:26;;;;;;;8.00;4.55;;;18.00;95.70;;;;;;5019239;28;20108;-71
2022/05/31 13:31:57;;;;;;;5.20;4.30;;;18.10;95.00;;;;;;5032664;28;20041;-72
2022/05/31 13:34:28;;;;;;;5.18;4.45;;;18.20;95.10;;;;;;5028579;28;20449;-72
2022/05/31 13:36:55;;;;;;;6.65;4.25;;;18.10;94.70;;;;;;5033087;28;20111;-72
2022/05/31 13:39:22;;;;;;;6.88;4.72;;;18.10;95.30;;;;;;5028256;28;20124;-71
2022/05/31 13:41:50;;;;;;;7.85;3.97;;;18.10;95.20;;;;;;5014933;28;20083;-71
2022/05/31 13:44:29;;;;;;;7.80;4.22;;;17.90;95.10;;;;;;5046179;28;20057;-72
2022/05/31 13:47:00;;;;;;;4.85;3.88;;;18.00;95.10;;;;;;5008732;28;20057;-72
2022/05/31 13:49:39;;;;;;;7.07;4.88;;;17.90;95.70;;;;;;5018836;28;20572;-72
2022/05/31 13:52:18;;;;;;;6.55;5.05;;;17.70;97.40;;;;;;5032684;28;20334;-72
2022/05/31 13:54:44;;;;;;;10.10;6.05;;;17.60;97.80;;;;;;5025167;28;20148;-71
2022/05/31 13:57:13;;;;;;;7.60;6.03;;;17.50;98.60;;;;;;5002484;28;20045;-71
2022/05/31 13:59:50;;;;;;;7.43;5.57;;;17.40;97.40;;;;;;5040571;28;20064;-71